sensor_id;sensor_type;location;lat;lon;timestamp;P1;durP1;ratioP1;P2;durP2;ratioP2
10078;SDS011;5078;42.544;22.966;2023-02-01T00:00:13;1.23;;;1.23;;
10078;SDS011;5078;42.544;22.966;2023-02-01T00:02:42;1.00;;;1.00;;
10078;SDS011;5078;42.544;22.966;2023-02-01T00:05:09;1.50;;;1.40;;
10078;SDS011;5078;42.544;22.966;2023-02-01T00:07:36;2.10;;;2.00;;
10078;SDS011;5078;42.544;22.966;2023-02-01T00:10:04;1.07;;;1.07;;
10078;SDS011;5078;42.544;22.966;2023-02-01T00:12:32;1.00;;;1.00;;
10078;SDS011;5078;42.544;22.966;2023-02-01T00:14:58;1.10;;;1.10;;
10078;SDS011;5078;42.544;22.966;2023-02-01T00:17:25;4.20;;;1.57;;
10078;SDS011;5078;42.544;22.966;2023-02-01T00:19:53;0.77;;;0.77;;
10078;SDS011;5078;42.544;22.966;2023-02-01T00:22:20;0.90;;;0.90;;
10078;SDS011;5078;42.544;22.966;2023-02-01T00:24:47;0.97;;;0.97;;
10078;SDS011;5078;42.544;22.966;2023-02-01T00:27:13;1.20;;;1.10;;
10078;SDS011;5078;42.544;22.966;2023-02-01T00:29:43;0.90;;;0.90;;
10078;SDS011;5078;42.544;22.966;2023-02-01T00:32:10;0.90;;;0.90;;
10078;SDS011;5078;42.544;22.966;2023-02-01T00:34:37;1.00;;;1.00;;
10078;SDS011;5078;42.544;22.966;2023-02-01T00:37:05;1.17;;;1.17;;
10078;SDS011;5078;42.544;22.966;2023-02-01T00:39:32;0.80;;;0.80;;
10078;SDS011;5078;42.544;22.966;2023-02-01T00:41:59;0.90;;;0.90;;
10078;SDS011;5078;42.544;22.966;2023-02-01T00:44:26;0.80;;;0.80;;
10078;SDS011;5078;42.544;22.966;2023-02-01T00:46:58;1.00;;;1.00;;
10078;SDS011;5078;42.544;22.966;2023-02-01T00:49:25;0.90;;;0.90;;
10078;SDS011;5078;42.544;22.966;2023-02-01T00:51:52;0.90;;;0.90;;
10078;SDS011;5078;42.544;22.966;2023-02-01T00:54:20;1.00;;;1.00;;
10078;SDS011;5078;42.544;22.966;2023-02-01T00:56:46;0.90;;;0.90;;
10078;SDS011;5078;42.544;22.966;2023-02-01T00:59:13;0.80;;;0.80;;
10078;SDS011;5078;42.544;22.966;2023-02-01T01:01:40;1.00;;;1.00;;
10078;SDS011;5078;42.544;22.966;2023-02-01T01:04:07;0.90;;;0.90;;
10078;SDS011;5078;42.544;22.966;2023-02-01T01:06:33;0.90;;;0.90;;
10078;SDS011;5078;42.544;22.966;2023-02-01T01:09:02;1.00;;;1.00;;
10078;SDS011;5078;42.544;22.966;2023-02-01T01:11:32;0.90;;;0.90;;
10078;SDS011;5078;42.544;22.966;2023-02-01T01:14:01;0.90;;;0.90;;
10078;SDS011;5078;42.544;22.966;2023-02-01T01:16:29;1.00;;;1.00;;
10078;SDS011;5078;42.544;22.966;2023-02-01T01:18:57;0.90;;;0.90;;
10078;SDS011;5078;42.544;22.966;2023-02-01T01:21:24;1.50;;;1.43;;
10078;SDS011;5078;42.544;22.966;2023-02-01T01:23:52;1.13;;;1.13;;
10078;SDS011;5078;42.544;22.966;2023-02-01T01:26:20;1.10;;;1.10;;
10078;SDS011;5078;42.544;22.966;2023-02-01T01:28:49;0.90;;;0.90;;
10078;SDS011;5078;42.544;22.966;2023-02-01T01:31:17;1.00;;;1.00;;
10078;SDS011;5078;42.544;22.966;2023-02-01T01:33:47;0.90;;;0.90;;
10078;SDS011;5078;42.544;22.966;2023-02-01T01:36:15;1.00;;;1.00;;
10078;SDS011;5078;42.544;22.966;2023-02-01T01:38:42;0.83;;;0.83;;
10078;SDS011;5078;42.544;22.966;2023-02-01T01:41:11;0.97;;;0.97;;
10078;SDS011;5078;42.544;22.966;2023-02-01T01:43:47;0.90;;;0.90;;
10078;SDS011;5078;42.544;22.966;2023-02-01T01:46:23;0.90;;;0.90;;
10078;SDS011;5078;42.544;22.966;2023-02-01T01:48:53;1.60;;;1.50;;
10078;SDS011;5078;42.544;22.966;2023-02-01T01:51:24;1.53;;;1.43;;
10078;SDS011;5078;42.544;22.966;2023-02-01T01:53:54;1.27;;;1.17;;
10078;SDS011;5078;42.544;22.966;2023-02-01T01:56:26;0.90;;;0.90;;
10078;SDS011;5078;42.544;22.966;2023-02-01T01:58:56;1.37;;;1.37;;
10078;SDS011;5078;42.544;22.966;2023-02-01T02:01:23;0.90;;;0.90;;
10078;SDS011;5078;42.544;22.966;2023-02-01T02:03:50;0.80;;;0.80;;
10078;SDS011;5078;42.544;22.966;2023-02-01T02:06:21;1.50;;;1.40;;
10078;SDS011;5078;42.544;22.966;2023-02-01T02:08:56;0.90;;;0.90;;
10078;SDS011;5078;42.544;22.966;2023-02-01T02:11:23;1.27;;;1.20;;
10078;SDS011;5078;42.544;22.966;2023-02-01T02:13:50;0.93;;;0.93;;
10078;SDS011;5078;42.544;22.966;2023-02-01T02:16:23;1.20;;;1.20;;
10078;SDS011;5078;42.544;22.966;2023-02-01T02:19:04;1.00;;;1.00;;
10078;SDS011;5078;42.544;22.966;2023-02-01T02:21:52;1.57;;;1.57;;
10078;SDS011;5078;42.544;22.966;2023-02-01T02:24:43;1.33;;;1.30;;
10078;SDS011;5078;42.544;22.966;2023-02-01T02:27:24;1.00;;;1.00;;
10078;SDS011;5078;42.544;22.966;2023-02-01T02:36:27;1.20;;;1.20;;
10078;SDS011;5078;42.544;22.966;2023-02-01T02:39:05;1.00;;;1.00;;
10078;SDS011;5078;42.544;22.966;2023-02-01T02:41:38;1.77;;;1.67;;
10078;SDS011;5078;42.544;22.966;2023-02-01T02:44:32;1.00;;;1.00;;
10078;SDS011;5078;42.544;22.966;2023-02-01T02:47:27;0.90;;;0.90;;
10078;SDS011;5078;42.544;22.966;2023-02-01T02:50:03;0.93;;;0.93;;
10078;SDS011;5078;42.544;22.966;2023-02-01T02:52:57;0.80;;;0.80;;
10078;SDS011;5078;42.544;22.966;2023-02-01T02:55:51;0.80;;;0.80;;
10078;SDS011;5078;42.544;22.966;2023-02-01T02:58:36;1.57;;;1.47;;
10078;SDS011;5078;42.544;22.966;2023-02-01T03:01:20;0.90;;;0.90;;
10078;SDS011;5078;42.544;22.966;2023-02-01T03:04:05;1.03;;;1.03;;
10078;SDS011;5078;42.544;22.966;2023-02-01T03:06:36;1.87;;;1.77;;
10078;SDS011;5078;42.544;22.966;2023-02-01T03:09:04;1.50;;;1.40;;
10078;SDS011;5078;42.544;22.966;2023-02-01T03:11:36;0.73;;;0.73;;
10078;SDS011;5078;42.544;22.966;2023-02-01T03:14:22;0.80;;;0.80;;
10078;SDS011;5078;42.544;22.966;2023-02-01T03:16:54;1.10;;;1.10;;
10078;SDS011;5078;42.544;22.966;2023-02-01T03:19:27;0.97;;;0.97;;
10078;SDS011;5078;42.544;22.966;2023-02-01T03:21:59;0.97;;;0.97;;
10078;SDS011;5078;42.544;22.966;2023-02-01T03:24:30;1.13;;;1.13;;
10078;SDS011;5078;42.544;22.966;2023-02-01T03:27:01;0.80;;;0.80;;
10078;SDS011;5078;42.544;22.966;2023-02-01T03:29:35;1.00;;;1.00;;
10078;SDS011;5078;42.544;22.966;2023-02-01T03:32:06;2.87;;;2.13;;
10078;SDS011;5078;42.544;22.966;2023-02-01T03:34:35;0.70;;;0.70;;
10078;SDS011;5078;42.544;22.966;2023-02-01T03:37:03;0.90;;;0.90;;
10078;SDS011;5078;42.544;22.966;2023-02-01T03:39:34;0.90;;;0.90;;
10078;SDS011;5078;42.544;22.966;2023-02-01T03:42:04;1.43;;;1.40;;
10078;SDS011;5078;42.544;22.966;2023-02-01T03:44:37;1.63;;;1.60;;
10078;SDS011;5078;42.544;22.966;2023-02-01T03:47:08;1.30;;;1.30;;
10078;SDS011;5078;42.544;22.966;2023-02-01T03:49:39;3.00;;;1.70;;
10078;SDS011;5078;42.544;22.966;2023-02-01T03:52:12;0.90;;;0.90;;
10078;SDS011;5078;42.544;22.966;2023-02-01T03:54:41;2.20;;;2.10;;
10078;SDS011;5078;42.544;22.966;2023-02-01T03:57:11;1.30;;;1.30;;
10078;SDS011;5078;42.544;22.966;2023-02-01T03:59:40;1.43;;;1.43;;
10078;SDS011;5078;42.544;22.966;2023-02-01T04:02:08;1.93;;;1.83;;
10078;SDS011;5078;42.544;22.966;2023-02-01T04:04:35;1.60;;;1.50;;
10078;SDS011;5078;42.544;22.966;2023-02-01T04:07:02;1.87;;;1.77;;
10078;SDS011;5078;42.544;22.966;2023-02-01T04:09:31;1.00;;;1.00;;
10078;SDS011;5078;42.544;22.966;2023-02-01T04:11:58;1.37;;;1.37;;
10078;SDS011;5078;42.544;22.966;2023-02-01T04:14:24;2.70;;;2.47;;
10078;SDS011;5078;42.544;22.966;2023-02-01T04:16:51;1.37;;;1.30;;
10078;SDS011;5078;42.544;22.966;2023-02-01T04:19:18;1.07;;;1.07;;
10078;SDS011;5078;42.544;22.966;2023-02-01T04:21:45;2.13;;;1.93;;
10078;SDS011;5078;42.544;22.966;2023-02-01T04:24:11;1.73;;;1.63;;
10078;SDS011;5078;42.544;22.966;2023-02-01T04:26:39;1.47;;;1.37;;
10078;SDS011;5078;42.544;22.966;2023-02-01T04:29:07;1.00;;;1.00;;
10078;SDS011;5078;42.544;22.966;2023-02-01T04:31:35;0.90;;;0.90;;
10078;SDS011;5078;42.544;22.966;2023-02-01T04:34:02;0.97;;;0.97;;
10078;SDS011;5078;42.544;22.966;2023-02-01T04:36:28;0.90;;;0.90;;
10078;SDS011;5078;42.544;22.966;2023-02-01T04:38:55;1.30;;;1.30;;
10078;SDS011;5078;42.544;22.966;2023-02-01T04:41:22;0.90;;;0.90;;
10078;SDS011;5078;42.544;22.966;2023-02-01T04:43:50;1.13;;;1.13;;
10078;SDS011;5078;42.544;22.966;2023-02-01T04:46:17;1.10;;;1.03;;
10078;SDS011;5078;42.544;22.966;2023-02-01T04:48:44;1.00;;;1.00;;
10078;SDS011;5078;42.544;22.966;2023-02-01T04:51:11;1.20;;;1.20;;
10078;SDS011;5078;42.544;22.966;2023-02-01T04:53:38;1.87;;;1.63;;
10078;SDS011;5078;42.544;22.966;2023-02-01T04:56:05;1.30;;;1.20;;
10078;SDS011;5078;42.544;22.966;2023-02-01T04:58:33;2.33;;;2.20;;
10078;SDS011;5078;42.544;22.966;2023-02-01T05:01:03;1.60;;;1.50;;
10078;SDS011;5078;42.544;22.966;2023-02-01T05:03:30;1.60;;;1.50;;
10078;SDS011;5078;42.544;22.966;2023-02-01T05:05:57;2.40;;;2.30;;
10078;SDS011;5078;42.544;22.966;2023-02-01T05:08:24;1.00;;;1.00;;
10078;SDS011;5078;42.544;22.966;2023-02-01T05:10:52;1.63;;;1.53;;
10078;SDS011;5078;42.544;22.966;2023-02-01T05:13:19;1.47;;;1.47;;
10078;SDS011;5078;42.544;22.966;2023-02-01T05:16:05;1.20;;;1.20;;
10078;SDS011;5078;42.544;22.966;2023-02-01T05:18:32;1.47;;;1.37;;
10078;SDS011;5078;42.544;22.966;2023-02-01T05:20:59;1.20;;;1.17;;
10078;SDS011;5078;42.544;22.966;2023-02-01T05:23:26;1.40;;;1.30;;
10078;SDS011;5078;42.544;22.966;2023-02-01T05:25:57;2.23;;;2.13;;
10078;SDS011;5078;42.544;22.966;2023-02-01T05:28:24;1.00;;;1.00;;
10078;SDS011;5078;42.544;22.966;2023-02-01T05:30:51;1.10;;;1.10;;
10078;SDS011;5078;42.544;22.966;2023-02-01T05:33:19;1.13;;;1.13;;
10078;SDS011;5078;42.544;22.966;2023-02-01T05:35:46;1.10;;;1.10;;
10078;SDS011;5078;42.544;22.966;2023-02-01T05:38:13;1.53;;;1.53;;
10078;SDS011;5078;42.544;22.966;2023-02-01T05:40:40;1.20;;;1.10;;
10078;SDS011;5078;42.544;22.966;2023-02-01T05:43:06;1.60;;;1.53;;
10078;SDS011;5078;42.544;22.966;2023-02-01T05:45:33;1.60;;;1.50;;
10078;SDS011;5078;42.544;22.966;2023-02-01T05:48:00;1.83;;;1.73;;
10078;SDS011;5078;42.544;22.966;2023-02-01T05:50:28;5.37;;;1.80;;
10078;SDS011;5078;42.544;22.966;2023-02-01T05:52:55;2.93;;;2.43;;
10078;SDS011;5078;42.544;22.966;2023-02-01T05:55:21;2.63;;;2.43;;
10078;SDS011;5078;42.544;22.966;2023-02-01T05:57:48;1.73;;;1.63;;
10078;SDS011;5078;42.544;22.966;2023-02-01T06:00:15;1.23;;;1.23;;
10078;SDS011;5078;42.544;22.966;2023-02-01T06:02:43;1.80;;;1.70;;
10078;SDS011;5078;42.544;22.966;2023-02-01T06:05:09;1.77;;;1.67;;
10078;SDS011;5078;42.544;22.966;2023-02-01T06:07:38;3.50;;;3.20;;
10078;SDS011;5078;42.544;22.966;2023-02-01T06:10:05;3.20;;;3.00;;
10078;SDS011;5078;42.544;22.966;2023-02-01T06:12:32;3.50;;;2.77;;
10078;SDS011;5078;42.544;22.966;2023-02-01T06:14:59;1.50;;;1.40;;
10078;SDS011;5078;42.544;22.966;2023-02-01T06:17:26;1.40;;;1.40;;
10078;SDS011;5078;42.544;22.966;2023-02-01T06:19:53;2.33;;;1.67;;
10078;SDS011;5078;42.544;22.966;2023-02-01T06:22:19;1.40;;;1.30;;
10078;SDS011;5078;42.544;22.966;2023-02-01T06:24:48;1.30;;;1.30;;
10078;SDS011;5078;42.544;22.966;2023-02-01T06:27:14;2.20;;;2.10;;
10078;SDS011;5078;42.544;22.966;2023-02-01T06:29:41;1.63;;;1.53;;
10078;SDS011;5078;42.544;22.966;2023-02-01T06:32:08;1.73;;;1.63;;
10078;SDS011;5078;42.544;22.966;2023-02-01T06:34:35;1.33;;;1.30;;
10078;SDS011;5078;42.544;22.966;2023-02-01T06:37:04;1.20;;;1.20;;
10078;SDS011;5078;42.544;22.966;2023-02-01T06:39:31;1.33;;;1.23;;
10078;SDS011;5078;42.544;22.966;2023-02-01T06:41:59;1.20;;;1.20;;
10078;SDS011;5078;42.544;22.966;2023-02-01T06:44:26;1.27;;;1.27;;
10078;SDS011;5078;42.544;22.966;2023-02-01T06:46:52;1.30;;;1.30;;
10078;SDS011;5078;42.544;22.966;2023-02-01T06:49:19;2.23;;;2.13;;
10078;SDS011;5078;42.544;22.966;2023-02-01T06:51:47;1.97;;;1.87;;
10078;SDS011;5078;42.544;22.966;2023-02-01T06:54:13;2.40;;;2.20;;
10078;SDS011;5078;42.544;22.966;2023-02-01T06:56:40;2.00;;;1.87;;
10078;SDS011;5078;42.544;22.966;2023-02-01T06:59:09;0.90;;;0.90;;
10078;SDS011;5078;42.544;22.966;2023-02-01T07:01:37;2.53;;;2.10;;
10078;SDS011;5078;42.544;22.966;2023-02-01T07:04:04;1.13;;;1.13;;
10078;SDS011;5078;42.544;22.966;2023-02-01T07:06:31;1.03;;;1.03;;
10078;SDS011;5078;42.544;22.966;2023-02-01T07:08:57;1.50;;;1.40;;
10078;SDS011;5078;42.544;22.966;2023-02-01T07:11:25;3.67;;;2.70;;
10078;SDS011;5078;42.544;22.966;2023-02-01T07:13:53;3.43;;;3.17;;
10078;SDS011;5078;42.544;22.966;2023-02-01T07:16:21;2.37;;;2.27;;
10078;SDS011;5078;42.544;22.966;2023-02-01T07:18:49;2.93;;;2.73;;
10078;SDS011;5078;42.544;22.966;2023-02-01T07:21:16;2.60;;;2.37;;
10078;SDS011;5078;42.544;22.966;2023-02-01T07:23:43;1.83;;;1.73;;
10078;SDS011;5078;42.544;22.966;2023-02-01T07:26:12;2.10;;;2.00;;
10078;SDS011;5078;42.544;22.966;2023-02-01T07:28:41;1.97;;;1.87;;
10078;SDS011;5078;42.544;22.966;2023-02-01T07:31:09;1.07;;;1.07;;
10078;SDS011;5078;42.544;22.966;2023-02-01T07:33:39;2.80;;;2.60;;
10078;SDS011;5078;42.544;22.966;2023-02-01T07:36:07;4.30;;;2.03;;
10078;SDS011;5078;42.544;22.966;2023-02-01T07:38:37;2.97;;;2.77;;
10078;SDS011;5078;42.544;22.966;2023-02-01T07:41:04;1.87;;;1.73;;
10078;SDS011;5078;42.544;22.966;2023-02-01T07:43:33;1.80;;;1.70;;
10078;SDS011;5078;42.544;22.966;2023-02-01T07:46:00;1.00;;;1.00;;
10078;SDS011;5078;42.544;22.966;2023-02-01T07:48:28;1.07;;;1.07;;
10078;SDS011;5078;42.544;22.966;2023-02-01T07:50:58;1.67;;;1.40;;
10078;SDS011;5078;42.544;22.966;2023-02-01T07:53:25;1.40;;;1.40;;
10078;SDS011;5078;42.544;22.966;2023-02-01T07:55:52;1.10;;;1.10;;
10078;SDS011;5078;42.544;22.966;2023-02-01T07:58:19;1.00;;;1.00;;
10078;SDS011;5078;42.544;22.966;2023-02-01T08:00:45;2.47;;;2.37;;
10078;SDS011;5078;42.544;22.966;2023-02-01T08:03:29;2.33;;;1.50;;
10078;SDS011;5078;42.544;22.966;2023-02-01T08:05:57;0.90;;;0.90;;
10078;SDS011;5078;42.544;22.966;2023-02-01T08:08:24;1.10;;;1.10;;
10078;SDS011;5078;42.544;22.966;2023-02-01T08:10:51;1.47;;;1.40;;
10078;SDS011;5078;42.544;22.966;2023-02-01T08:13:19;1.37;;;1.37;;
10078;SDS011;5078;42.544;22.966;2023-02-01T08:15:46;1.17;;;1.17;;
10078;SDS011;5078;42.544;22.966;2023-02-01T08:18:13;1.33;;;1.23;;
10078;SDS011;5078;42.544;22.966;2023-02-01T08:20:41;1.93;;;1.77;;
10078;SDS011;5078;42.544;22.966;2023-02-01T08:23:12;1.27;;;1.10;;
10078;SDS011;5078;42.544;22.966;2023-02-01T08:25:38;2.40;;;1.10;;
10078;SDS011;5078;42.544;22.966;2023-02-01T08:28:05;1.30;;;1.20;;
10078;SDS011;5078;42.544;22.966;2023-02-01T08:30:32;2.93;;;1.83;;
10078;SDS011;5078;42.544;22.966;2023-02-01T08:32:59;2.00;;;1.83;;
10078;SDS011;5078;42.544;22.966;2023-02-01T08:35:26;1.73;;;1.63;;
10078;SDS011;5078;42.544;22.966;2023-02-01T08:37:53;1.10;;;1.10;;
10078;SDS011;5078;42.544;22.966;2023-02-01T08:40:21;1.20;;;1.20;;
10078;SDS011;5078;42.544;22.966;2023-02-01T08:42:47;1.33;;;1.23;;
10078;SDS011;5078;42.544;22.966;2023-02-01T08:45:17;0.90;;;0.90;;
10078;SDS011;5078;42.544;22.966;2023-02-01T08:47:44;1.00;;;1.00;;
10078;SDS011;5078;42.544;22.966;2023-02-01T08:50:15;0.97;;;0.97;;
10078;SDS011;5078;42.544;22.966;2023-02-01T08:52:43;1.23;;;1.23;;
10078;SDS011;5078;42.544;22.966;2023-02-01T08:55:10;1.27;;;1.27;;
10078;SDS011;5078;42.544;22.966;2023-02-01T08:57:38;1.03;;;1.03;;
10078;SDS011;5078;42.544;22.966;2023-02-01T09:00:06;1.30;;;1.30;;
10078;SDS011;5078;42.544;22.966;2023-02-01T09:02:35;1.00;;;1.00;;
10078;SDS011;5078;42.544;22.966;2023-02-01T09:05:01;1.00;;;0.93;;
10078;SDS011;5078;42.544;22.966;2023-02-01T09:07:29;0.80;;;0.80;;
10078;SDS011;5078;42.544;22.966;2023-02-01T09:09:55;0.90;;;0.90;;
10078;SDS011;5078;42.544;22.966;2023-02-01T09:12:26;0.90;;;0.90;;
10078;SDS011;5078;42.544;22.966;2023-02-01T09:14:54;0.90;;;0.90;;
10078;SDS011;5078;42.544;22.966;2023-02-01T09:17:21;0.93;;;0.93;;
10078;SDS011;5078;42.544;22.966;2023-02-01T09:19:48;0.80;;;0.80;;
10078;SDS011;5078;42.544;22.966;2023-02-01T09:22:14;1.00;;;1.00;;
10078;SDS011;5078;42.544;22.966;2023-02-01T09:24:41;0.87;;;0.87;;
10078;SDS011;5078;42.544;22.966;2023-02-01T09:27:08;0.93;;;0.93;;
10078;SDS011;5078;42.544;22.966;2023-02-01T09:29:35;0.90;;;0.90;;
10078;SDS011;5078;42.544;22.966;2023-02-01T09:32:03;0.80;;;0.80;;
10078;SDS011;5078;42.544;22.966;2023-02-01T09:34:31;0.97;;;0.97;;
10078;SDS011;5078;42.544;22.966;2023-02-01T09:36:58;0.80;;;0.80;;
10078;SDS011;5078;42.544;22.966;2023-02-01T09:39:24;0.90;;;0.90;;
10078;SDS011;5078;42.544;22.966;2023-02-01T09:41:54;1.00;;;1.00;;
10078;SDS011;5078;42.544;22.966;2023-02-01T09:44:32;1.80;;;1.70;;
10078;SDS011;5078;42.544;22.966;2023-02-01T09:47:12;1.50;;;1.40;;
10078;SDS011;5078;42.544;22.966;2023-02-01T09:49:43;1.03;;;1.03;;
10078;SDS011;5078;42.544;22.966;2023-02-01T09:52:18;0.90;;;0.90;;
10078;SDS011;5078;42.544;22.966;2023-02-01T09:54:52;1.47;;;1.20;;
10078;SDS011;5078;42.544;22.966;2023-02-01T09:57:26;1.77;;;1.67;;
10078;SDS011;5078;42.544;22.966;2023-02-01T10:00:12;1.10;;;1.10;;
10078;SDS011;5078;42.544;22.966;2023-02-01T10:02:45;1.27;;;1.17;;
10078;SDS011;5078;42.544;22.966;2023-02-01T10:05:12;1.00;;;1.00;;
10078;SDS011;5078;42.544;22.966;2023-02-01T10:07:42;0.80;;;0.80;;
10078;SDS011;5078;42.544;22.966;2023-02-01T10:10:18;1.10;;;1.10;;
10078;SDS011;5078;42.544;22.966;2023-02-01T10:12:57;1.10;;;1.10;;
10078;SDS011;5078;42.544;22.966;2023-02-01T10:15:56;1.00;;;1.00;;
10078;SDS011;5078;42.544;22.966;2023-02-01T10:18:43;0.87;;;0.87;;
10078;SDS011;5078;42.544;22.966;2023-02-01T10:21:31;0.90;;;0.90;;
10078;SDS011;5078;42.544;22.966;2023-02-01T10:24:28;1.50;;;1.30;;
10078;SDS011;5078;42.544;22.966;2023-02-01T10:27:02;0.93;;;0.93;;
10078;SDS011;5078;42.544;22.966;2023-02-01T10:29:39;1.27;;;1.27;;
10078;SDS011;5078;42.544;22.966;2023-02-01T10:32:11;0.93;;;0.93;;
10078;SDS011;5078;42.544;22.966;2023-02-01T10:34:42;0.82;;;0.82;;
10078;SDS011;5078;42.544;22.966;2023-02-01T10:37:23;0.80;;;0.80;;
10078;SDS011;5078;42.544;22.966;2023-02-01T10:39:54;1.08;;;1.00;;
10078;SDS011;5078;42.544;22.966;2023-02-01T10:42:24;1.13;;;1.10;;
10078;SDS011;5078;42.544;22.966;2023-02-01T10:44:53;1.08;;;1.08;;
10078;SDS011;5078;42.544;22.966;2023-02-01T10:47:22;0.80;;;0.80;;
10078;SDS011;5078;42.544;22.966;2023-02-01T10:49:52;0.80;;;0.80;;
10078;SDS011;5078;42.544;22.966;2023-02-01T10:52:29;0.93;;;0.93;;
10078;SDS011;5078;42.544;22.966;2023-02-01T10:57:59;0.80;;;0.80;;
10078;SDS011;5078;42.544;22.966;2023-02-01T11:00:27;0.90;;;0.90;;
10078;SDS011;5078;42.544;22.966;2023-02-01T11:03:00;2.00;;;1.60;;
10078;SDS011;5078;42.544;22.966;2023-02-01T11:05:46;0.80;;;0.80;;
10078;SDS011;5078;42.544;22.966;2023-02-01T11:08:14;1.00;;;1.00;;
10078;SDS011;5078;42.544;22.966;2023-02-01T11:10:43;0.90;;;0.90;;
10078;SDS011;5078;42.544;22.966;2023-02-01T11:13:11;0.82;;;0.82;;
10078;SDS011;5078;42.544;22.966;2023-02-01T11:15:43;0.95;;;0.95;;
10078;SDS011;5078;42.544;22.966;2023-02-01T11:18:14;0.90;;;0.90;;
10078;SDS011;5078;42.544;22.966;2023-02-01T11:20:43;2.15;;;1.13;;
10078;SDS011;5078;42.544;22.966;2023-02-01T11:23:16;1.23;;;1.23;;
10078;SDS011;5078;42.544;22.966;2023-02-01T11:25:47;1.08;;;1.08;;
10078;SDS011;5078;42.544;22.966;2023-02-01T11:28:16;0.80;;;0.80;;
10078;SDS011;5078;42.544;22.966;2023-02-01T11:30:44;1.13;;;1.13;;
10078;SDS011;5078;42.544;22.966;2023-02-01T11:33:13;0.90;;;0.90;;
10078;SDS011;5078;42.544;22.966;2023-02-01T11:35:43;0.70;;;0.70;;
10078;SDS011;5078;42.544;22.966;2023-02-01T11:38:13;0.90;;;0.90;;
10078;SDS011;5078;42.544;22.966;2023-02-01T11:40:48;0.70;;;0.70;;
10078;SDS011;5078;42.544;22.966;2023-02-01T11:43:17;0.75;;;0.75;;
10078;SDS011;5078;42.544;22.966;2023-02-01T11:45:53;2.15;;;1.00;;
10078;SDS011;5078;42.544;22.966;2023-02-01T11:48:21;0.82;;;0.82;;
10078;SDS011;5078;42.544;22.966;2023-02-01T11:50:51;0.70;;;0.70;;
10078;SDS011;5078;42.544;22.966;2023-02-01T11:53:34;1.50;;;1.40;;
10078;SDS011;5078;42.544;22.966;2023-02-01T11:56:15;0.90;;;0.90;;
10078;SDS011;5078;42.544;22.966;2023-02-01T11:59:05;0.88;;;0.88;;
10078;SDS011;5078;42.544;22.966;2023-02-01T12:07:39;5.45;;;2.85;;
10078;SDS011;5078;42.544;22.966;2023-02-01T12:10:20;0.75;;;0.75;;
10078;SDS011;5078;42.544;22.966;2023-02-01T12:13:00;0.70;;;0.70;;
10078;SDS011;5078;42.544;22.966;2023-02-01T12:15:39;0.70;;;0.70;;
10078;SDS011;5078;42.544;22.966;2023-02-01T12:18:26;0.70;;;0.70;;
10078;SDS011;5078;42.544;22.966;2023-02-01T12:21:17;0.98;;;0.98;;
10078;SDS011;5078;42.544;22.966;2023-02-01T12:24:07;0.90;;;0.90;;
10078;SDS011;5078;42.544;22.966;2023-02-01T12:26:46;0.93;;;0.93;;
10078;SDS011;5078;42.544;22.966;2023-02-01T12:29:32;0.90;;;0.90;;
10078;SDS011;5078;42.544;22.966;2023-02-01T12:32:16;0.95;;;0.93;;
10078;SDS011;5078;42.544;22.966;2023-02-01T12:35:12;0.90;;;0.90;;
10078;SDS011;5078;42.544;22.966;2023-02-01T12:37:51;1.83;;;1.50;;
10078;SDS011;5078;42.544;22.966;2023-02-01T12:40:33;0.80;;;0.80;;
10078;SDS011;5078;42.544;22.966;2023-02-01T12:43:09;0.80;;;0.80;;
10078;SDS011;5078;42.544;22.966;2023-02-01T12:45:42;0.80;;;0.80;;
10078;SDS011;5078;42.544;22.966;2023-02-01T12:48:21;1.95;;;1.10;;
10078;SDS011;5078;42.544;22.966;2023-02-01T12:50:54;1.00;;;1.00;;
10078;SDS011;5078;42.544;22.966;2023-02-01T12:53:25;0.80;;;0.80;;
10078;SDS011;5078;42.544;22.966;2023-02-01T12:55:57;1.10;;;1.00;;
10078;SDS011;5078;42.544;22.966;2023-02-01T12:58:30;0.90;;;0.90;;
10078;SDS011;5078;42.544;22.966;2023-02-01T13:01:02;0.80;;;0.80;;
10078;SDS011;5078;42.544;22.966;2023-02-01T13:03:36;1.30;;;1.20;;
10078;SDS011;5078;42.544;22.966;2023-02-01T13:06:07;0.80;;;0.80;;
10078;SDS011;5078;42.544;22.966;2023-02-01T13:08:40;0.90;;;0.90;;
10078;SDS011;5078;42.544;22.966;2023-02-01T13:11:13;1.10;;;1.10;;
10078;SDS011;5078;42.544;22.966;2023-02-01T13:13:49;1.42;;;1.33;;
10078;SDS011;5078;42.544;22.966;2023-02-01T13:16:26;0.80;;;0.80;;
10078;SDS011;5078;42.544;22.966;2023-02-01T13:19:00;0.90;;;0.90;;
10078;SDS011;5078;42.544;22.966;2023-02-01T13:21:31;0.80;;;0.80;;
10078;SDS011;5078;42.544;22.966;2023-02-01T13:24:01;0.80;;;0.80;;
10078;SDS011;5078;42.544;22.966;2023-02-01T13:26:29;1.58;;;1.48;;
10078;SDS011;5078;42.544;22.966;2023-02-01T13:28:56;0.88;;;0.88;;
10078;SDS011;5078;42.544;22.966;2023-02-01T13:31:33;1.60;;;1.50;;
10078;SDS011;5078;42.544;22.966;2023-02-01T13:34:36;0.90;;;0.90;;
10078;SDS011;5078;42.544;22.966;2023-02-01T13:37:28;1.00;;;1.00;;
10078;SDS011;5078;42.544;22.966;2023-02-01T13:40:18;1.02;;;1.02;;
10078;SDS011;5078;42.544;22.966;2023-02-01T13:43:02;0.90;;;0.90;;
10078;SDS011;5078;42.544;22.966;2023-02-01T13:45:34;1.45;;;1.10;;
10078;SDS011;5078;42.544;22.966;2023-02-01T13:48:14;1.08;;;1.08;;
10078;SDS011;5078;42.544;22.966;2023-02-01T13:50:49;1.02;;;1.02;;
10078;SDS011;5078;42.544;22.966;2023-02-01T13:53:18;1.08;;;1.08;;
10078;SDS011;5078;42.544;22.966;2023-02-01T13:55:55;1.20;;;1.10;;
10078;SDS011;5078;42.544;22.966;2023-02-01T13:58:29;1.50;;;1.40;;
10078;SDS011;5078;42.544;22.966;2023-02-01T14:03:58;1.80;;;1.40;;
10078;SDS011;5078;42.544;22.966;2023-02-01T14:06:40;0.90;;;0.90;;
10078;SDS011;5078;42.544;22.966;2023-02-01T14:09:11;0.80;;;0.80;;
10078;SDS011;5078;42.544;22.966;2023-02-01T14:11:44;0.90;;;0.90;;
10078;SDS011;5078;42.544;22.966;2023-02-01T14:23:23;0.77;;;0.77;;
10078;SDS011;5078;42.544;22.966;2023-02-01T14:26:10;1.77;;;1.65;;
10078;SDS011;5078;42.544;22.966;2023-02-01T14:28:44;1.10;;;1.10;;
10078;SDS011;5078;42.544;22.966;2023-02-01T14:31:14;0.95;;;0.95;;
10078;SDS011;5078;42.544;22.966;2023-02-01T14:33:55;4.97;;;1.77;;
10078;SDS011;5078;42.544;22.966;2023-02-01T14:36:25;0.90;;;0.90;;
10078;SDS011;5078;42.544;22.966;2023-02-01T14:39:16;1.80;;;1.70;;
10078;SDS011;5078;42.544;22.966;2023-02-01T14:41:47;2.88;;;2.60;;
10078;SDS011;5078;42.544;22.966;2023-02-01T14:47:10;4.50;;;3.28;;
10078;SDS011;5078;42.544;22.966;2023-02-01T14:53:03;14.40;;;8.35;;
10078;SDS011;5078;42.544;22.966;2023-02-01T14:55:47;5.57;;;5.07;;
10078;SDS011;5078;42.544;22.966;2023-02-01T14:58:19;2.95;;;2.75;;
10078;SDS011;5078;42.544;22.966;2023-02-01T15:00:54;3.53;;;2.83;;
10078;SDS011;5078;42.544;22.966;2023-02-01T15:03:28;2.78;;;2.00;;
10078;SDS011;5078;42.544;22.966;2023-02-01T15:06:03;4.00;;;3.65;;
10078;SDS011;5078;42.544;22.966;2023-02-01T15:08:32;6.85;;;3.15;;
10078;SDS011;5078;42.544;22.966;2023-02-01T15:11:05;2.67;;;2.10;;
10078;SDS011;5078;42.544;22.966;2023-02-01T15:13:35;1.23;;;1.23;;
10078;SDS011;5078;42.544;22.966;2023-02-01T15:16:07;2.58;;;2.38;;
10078;SDS011;5078;42.544;22.966;2023-02-01T15:18:37;0.93;;;0.93;;
10078;SDS011;5078;42.544;22.966;2023-02-01T15:21:04;0.90;;;0.90;;
10078;SDS011;5078;42.544;22.966;2023-02-01T15:23:32;2.17;;;1.98;;
10078;SDS011;5078;42.544;22.966;2023-02-01T15:25:59;2.65;;;2.45;;
10078;SDS011;5078;42.544;22.966;2023-02-01T15:28:27;1.35;;;1.35;;
10078;SDS011;5078;42.544;22.966;2023-02-01T15:30:55;2.25;;;2.15;;
10078;SDS011;5078;42.544;22.966;2023-02-01T15:33:24;1.65;;;1.55;;
10078;SDS011;5078;42.544;22.966;2023-02-01T15:35:52;1.15;;;1.15;;
10078;SDS011;5078;42.544;22.966;2023-02-01T15:41:12;1.88;;;1.75;;
10078;SDS011;5078;42.544;22.966;2023-02-01T15:43:43;2.53;;;2.33;;
10078;SDS011;5078;42.544;22.966;2023-02-01T15:46:15;2.55;;;2.17;;
10078;SDS011;5078;42.544;22.966;2023-02-01T15:48:46;2.65;;;1.95;;